Time;durP1;ratioP1;P1;durP2;ratioP2;P2;SDS_P1;SDS_P2;PMS_P1;PMS_P2;Temp;Humidity;BMP_temperature;BMP_pressure;BME280_temperature;BME280_humidity;BME280_pressure;Samples;Min_cycle;Max_cycle;Signal;HPM_P1;HPM_P2
2023/01/02 00:00:04;;;;;;;5.82;2.42;;;;;;;;;;5096169;28;20028;-76
2023/01/02 00:02:29;;;;;;;8.60;3.08;;;;;;;;;;5096795;28;20024;-76
2023/01/02 00:04:55;;;;;;;6.15;2.83;;;;;;;;;;5097831;28;20541;-77
2023/01/02 00:07:20;;;;;;;6.97;2.60;;;;;;;;;;5097889;28;20012;-77
2023/01/02 00:09:46;;;;;;;5.70;2.40;;;;;;;;;;5097731;28;20411;-77
2023/01/02 00:12:11;;;;;;;9.82;3.33;;;;;;;;;;5096455;28;20027;-78
2023/01/02 00:14:37;;;;;;;6.47;2.22;;;;;;;;;;5097131;28;20067;-79
2023/01/02 00:17:02;;;;;;;7.32;2.40;;;;;;;;;;5096941;28;20022;-76
2023/01/02 00:19:27;;;;;;;8.30;3.13;;;;;;;;;;5096960;28;20539;-76
2023/01/02 00:21:53;;;;;;;10.25;2.78;;;;;;;;;;5097030;28;20012;-78
2023/01/02 00:24:18;;;;;;;7.72;2.75;;;;;;;;;;5096832;28;20380;-77
2023/01/02 00:26:44;;;;;;;6.38;2.30;;;;;;;;;;5096235;28;20118;-76
2023/01/02 00:29:09;;;;;;;7.30;3.15;;;;;;;;;;5095941;28;20028;-76
2023/01/02 00:31:35;;;;;;;5.15;2.55;;;;;;;;;;5097381;28;20020;-77
2023/01/02 00:34:00;;;;;;;9.43;3.08;;;;;;;;;;5095303;28;20120;-76
2023/01/02 00:36:26;;;;;;;6.55;2.33;;;;;;;;;;5095227;28;20034;-77
2023/01/02 00:38:55;;;;;;;6.35;2.05;;;;;;;;;;5095366;28;20012;-76
2023/01/02 00:41:20;;;;;;;7.82;1.98;;;;;;;;;;5095858;28;20427;-76
2023/01/02 00:43:46;;;;;;;7.57;1.65;;;;;;;;;;5096761;28;20020;-76
2023/01/02 00:46:11;;;;;;;5.22;2.13;;;;;;;;;;5097223;28;20020;-75
2023/01/02 00:48:37;;;;;;;8.95;2.00;;;;;;;;;;5096525;28;20024;-77
2023/01/02 00:51:03;;;;;;;8.82;2.33;;;;;;;;;;5096737;28;20373;-77
2023/01/02 00:53:28;;;;;;;11.13;3.17;;;;;;;;;;5095161;28;20039;-78
2023/01/02 00:55:53;;;;;;;5.68;2.20;;;;;;;;;;5095004;28;20497;-76
2023/01/02 00:58:19;;;;;;;3.60;2.20;;;;;;;;;;5095206;28;20035;-77
2023/01/02 01:00:44;;;;;;;6.57;1.35;;;;;;;;;;5095207;28;20502;-77
2023/01/02 01:03:10;;;;;;;9.57;2.50;;;;;;;;;;5095723;28;20526;-75
2023/01/02 01:05:37;;;;;;;6.00;2.35;;;;;;;;;;5096474;28;20052;-75
2023/01/02 01:08:03;;;;;;;4.47;2.00;;;;;;;;;;5094858;28;20024;-76
2023/01/02 01:10:30;;;;;;;5.95;2.83;;;;;;;;;;5095523;28;20104;-75
2023/01/02 01:12:55;;;;;;;8.38;2.63;;;;;;;;;;5097759;28;20055;-75
2023/01/02 01:15:21;;;;;;;5.78;2.05;;;;;;;;;;5094603;28;20039;-77
2023/01/02 01:17:46;;;;;;;5.82;2.22;;;;;;;;;;5094932;28;20016;-76
2023/01/02 01:20:12;;;;;;;4.90;1.92;;;;;;;;;;5095733;28;20015;-75
2023/01/02 01:22:38;;;;;;;3.33;1.42;;;;;;;;;;5096020;28;20055;-75
2023/01/02 01:25:04;;;;;;;7.80;2.35;;;;;;;;;;5093687;28;20020;-77
2023/01/02 01:27:29;;;;;;;5.20;2.30;;;;;;;;;;5093676;28;20077;-74
2023/01/02 01:29:55;;;;;;;5.63;2.17;;;;;;;;;;5093743;28;20354;-76
2023/01/02 01:32:20;;;;;;;8.23;2.58;;;;;;;;;;5094929;28;20024;-77
2023/01/02 01:34:46;;;;;;;12.85;1.80;;;;;;;;;;5093334;28;20068;-78
2023/01/02 01:37:11;;;;;;;6.47;2.70;;;;;;;;;;5093359;28;20069;-75
2023/01/02 01:39:37;;;;;;;8.02;2.25;;;;;;;;;;5093795;28;20020;-76
2023/01/02 01:42:03;;;;;;;4.53;1.70;;;;;;;;;;5094476;28;20469;-76
2023/01/02 01:44:49;;;;;;;6.65;1.65;;;;;;;;;;5094615;28;20016;-77
2023/01/02 01:47:20;;;;;;;3.22;1.38;;;;;;;;;;5093623;28;20020;-76
2023/01/02 01:49:47;;;;;;;2.40;1.33;;;;;;;;;;5093789;28;20187;-76
2023/01/02 01:52:14;;;;;;;2.13;0.73;;;;;;;;;;5094829;28;20020;-76
2023/01/02 01:54:50;;;;;;;3.67;1.50;;;;;;;;;;5093439;28;20101;-77
2023/01/02 01:57:42;;;;;;;4.97;2.20;;;;;;;;;;5096427;28;20100;-77
2023/01/02 02:00:08;;;;;;;4.85;1.50;;;;;;;;;;5095588;28;20191;-77
2023/01/02 02:02:33;;;;;;;5.22;2.15;;;;;;;;;;5098433;28;20024;-74
2023/01/02 02:05:01;;;;;;;6.68;2.28;;;;;;;;;;5096193;28;20095;-75
2023/01/02 02:07:27;;;;;;;4.20;1.95;;;;;;;;;;5096749;28;20016;-76
2023/01/02 02:09:56;;;;;;;6.55;1.85;;;;;;;;;;5095502;28;20027;-76
2023/01/02 02:12:22;;;;;;;5.90;1.33;;;;;;;;;;5096955;28;20023;-76
2023/01/02 02:14:47;;;;;;;3.85;1.17;;;;;;;;;;5095423;28;20036;-75
2023/01/02 02:17:23;;;;;;;5.57;1.48;;;;;;;;;;5095208;28;20024;-76
2023/01/02 02:19:48;;;;;;;4.93;1.50;;;;;;;;;;5094984;28;20016;-77
2023/01/02 02:22:34;;;;;;;4.03;1.45;;;;;;;;;;5095093;28;20354;-74
2023/01/02 02:25:06;;;;;;;6.15;1.35;;;;;;;;;;5096291;28;20042;-74
2023/01/02 02:27:55;;;;;;;3.50;1.00;;;;;;;;;;5094449;28;20055;-77
2023/01/02 02:30:22;;;;;;;5.90;1.42;;;;;;;;;;5056737;28;20063;-74
2023/01/02 02:33:03;;;;;;;4.03;0.82;;;;;;;;;;5095753;28;20047;-74
2023/01/02 02:35:42;;;;;;;6.38;0.95;;;;;;;;;;5095934;28;20044;-78
2023/01/02 02:38:14;;;;;;;3.40;0.43;;;;;;;;;;5094357;28;20054;-74
2023/01/02 02:40:43;;;;;;;2.25;0.93;;;;;;;;;;5094331;28;20020;-75
2023/01/02 02:43:13;;;;;;;5.30;0.68;;;;;;;;;;5094855;28;20020;-72
2023/01/02 02:45:51;;;;;;;5.25;0.85;;;;;;;;;;5095765;28;20116;-74
2023/01/02 02:48:25;;;;;;;6.28;1.00;;;;;;;;;;5095546;28;20031;-76
2023/01/02 02:50:55;;;;;;;6.05;0.68;;;;;;;;;;5094808;28;20476;-73
2023/01/02 02:53:25;;;;;;;6.07;1.40;;;;;;;;;;5093614;28;20526;-77
2023/01/02 02:55:52;;;;;;;3.55;0.73;;;;;;;;;;5095682;28;20035;-78
2023/01/02 02:58:18;;;;;;;5.10;0.88;;;;;;;;;;5095921;28;20078;-77
2023/01/02 03:00:44;;;;;;;1.90;0.50;;;;;;;;;;5096087;28;20016;-78
2023/01/02 03:03:14;;;;;;;6.68;0.85;;;;;;;;;;5094126;28;20020;-80
2023/01/02 03:05:40;;;;;;;2.58;0.90;;;;;;;;;;5094075;28;20590;-78
2023/01/02 03:08:11;;;;;;;6.97;1.38;;;;;;;;;;5093921;28;20043;-79
2023/01/02 03:10:51;;;;;;;8.80;1.42;;;;;;;;;;5096303;28;20020;-78
2023/01/02 03:13:25;;;;;;;2.03;0.73;;;;;;;;;;5095216;28;20152;-77
2023/01/02 03:16:09;;;;;;;7.72;1.35;;;;;;;;;;5094133;28;20039;-79
2023/01/02 03:18:39;;;;;;;6.70;1.33;;;;;;;;;;5095351;28;20108;-77
2023/01/02 03:21:18;;;;;;;2.15;1.00;;;;;;;;;;5094786;28;20016;-77
2023/01/02 03:23:45;;;;;;;3.28;0.55;;;;;;;;;;5095305;28;20535;-78
2023/01/02 03:26:12;;;;;;;7.55;0.60;;;;;;;;;;5093800;28;20365;-74
2023/01/02 03:28:40;;;;;;;4.97;0.65;;;;;;;;;;5093287;28;20031;-78
2023/01/02 03:31:07;;;;;;;4.28;0.85;;;;;;;;;;5092852;28;20169;-78
2023/01/02 03:33:35;;;;;;;4.03;0.60;;;;;;;;;;5094596;28;20069;-74
2023/01/02 03:36:06;;;;;;;4.50;0.95;;;;;;;;;;5094517;28;20024;-77
2023/01/02 03:38:35;;;;;;;2.50;1.00;;;;;;;;;;5093125;28;20377;-76
2023/01/02 03:41:29;;;;;;;4.28;1.27;;;;;;;;;;5093257;28;20126;-77
2023/01/02 03:43:56;;;;;;;2.63;0.80;;;;;;;;;;5081453;28;20434;-78
2023/01/02 03:46:22;;;;;;;1.83;0.60;;;;;;;;;;5092631;28;20019;-76
2023/01/02 03:48:53;;;;;;;2.47;0.30;;;;;;;;;;5092926;28;20504;-75
2023/01/02 03:51:18;;;;;;;2.50;0.60;;;;;;;;;;5094809;28;20027;-77
2023/01/02 03:53:45;;;;;;;5.05;0.80;;;;;;;;;;5095369;28;20020;-75
2023/01/02 03:56:22;;;;;;;4.22;0.60;;;;;;;;;;5095673;28;20506;-75
2023/01/02 03:58:49;;;;;;;3.47;0.73;;;;;;;;;;5092557;28;20043;-78
2023/01/02 04:01:19;;;;;;;4.50;0.68;;;;;;;;;;5092733;28;20103;-76
2023/01/02 04:03:51;;;;;;;2.67;0.60;;;;;;;;;;5092028;28;20054;-78
2023/01/02 04:06:18;;;;;;;5.85;0.70;;;;;;;;;;5093351;28;20037;-74
2023/01/02 04:08:50;;;;;;;5.22;0.90;;;;;;;;;;5092000;28;20028;-74
2023/01/02 04:11:18;;;;;;;4.50;0.73;;;;;;;;;;5093655;28;20016;-79
2023/01/02 04:13:54;;;;;;;3.60;0.70;;;;;;;;;;5093328;28;20377;-75
2023/01/02 04:16:23;;;;;;;3.67;0.60;;;;;;;;;;5091967;28;20024;-77
2023/01/02 04:19:01;;;;;;;2.25;0.60;;;;;;;;;;5092836;28;20030;-78
2023/01/02 04:21:29;;;;;;;6.70;1.13;;;;;;;;;;5093543;28;20024;-78
2023/01/02 04:23:59;;;;;;;3.53;0.57;;;;;;;;;;5093795;28;20019;-77
2023/01/02 04:26:35;;;;;;;2.33;0.60;;;;;;;;;;5093471;28;20024;-78
2023/01/02 04:29:01;;;;;;;0.93;0.30;;;;;;;;;;5092976;28;20016;-77
2023/01/02 04:31:40;;;;;;;1.48;0.30;;;;;;;;;;5093014;28;20016;-74
2023/01/02 04:34:08;;;;;;;2.28;0.32;;;;;;;;;;5093356;28;20036;-80
2023/01/02 04:36:36;;;;;;;5.57;0.70;;;;;;;;;;5093194;28;20008;-78
2023/01/02 04:39:02;;;;;;;2.75;0.60;;;;;;;;;;5092073;28;20433;-78
2023/01/02 04:41:27;;;;;;;7.95;1.15;;;;;;;;;;5092251;28;20050;-79
2023/01/02 04:43:53;;;;;;;4.85;0.57;;;;;;;;;;5092957;28;20020;-76
2023/01/02 04:46:19;;;;;;;4.90;0.47;;;;;;;;;;5093074;28;20048;-77
2023/01/02 04:48:44;;;;;;;5.38;0.63;;;;;;;;;;5092961;28;20165;-77
2023/01/02 04:51:10;;;;;;;4.35;0.45;;;;;;;;;;5092537;28;20069;-76
2023/01/02 04:53:35;;;;;;;4.13;0.47;;;;;;;;;;5092756;28;20099;-76
2023/01/02 04:56:01;;;;;;;8.75;0.60;;;;;;;;;;5092774;28;20032;-80
2023/01/02 04:58:26;;;;;;;3.58;1.17;;;;;;;;;;5091637;28;20063;-75
2023/01/02 05:00:52;;;;;;;3.70;1.02;;;;;;;;;;5092834;28;20019;-74
2023/01/02 05:03:18;;;;;;;5.95;0.60;;;;;;;;;;5092339;28;20056;-77
2023/01/02 05:05:43;;;;;;;3.13;0.63;;;;;;;;;;5090971;28;20040;-77
2023/01/02 05:08:09;;;;;;;7.43;1.35;;;;;;;;;;5091141;28;20028;-80
2023/01/02 05:10:34;;;;;;;4.20;0.70;;;;;;;;;;5092846;28;20020;-79
2023/01/02 05:12:59;;;;;;;4.00;1.02;;;;;;;;;;5092855;28;20012;-79
2023/01/02 05:15:25;;;;;;;9.85;1.58;;;;;;;;;;5091364;28;20028;-77
2023/01/02 05:17:50;;;;;;;5.03;1.00;;;;;;;;;;5091230;28;20060;-75
2023/01/02 05:20:16;;;;;;;2.15;0.70;;;;;;;;;;5092545;28;20012;-76
2023/01/02 05:25:27;;;;;;;9.98;0.90;;;;;;;;;;5095680;28;20161;-79
2023/01/02 05:27:53;;;;;;;12.43;1.58;;;;;;;;;;5092410;28;20328;-71
2023/01/02 05:30:19;;;;;;;10.02;1.92;;;;;;;;;;5092833;28;20107;-74
2023/01/02 05:32:44;;;;;;;6.25;1.38;;;;;;;;;;5095110;28;20161;-72
2023/01/02 05:35:10;;;;;;;9.10;1.60;;;;;;;;;;5095823;28;20031;-71
2023/01/02 05:37:35;;;;;;;7.35;1.13;;;;;;;;;;5096198;28;20056;-69
2023/01/02 05:40:00;;;;;;;10.27;2.05;;;;;;;;;;5096266;28;20395;-71
2023/01/02 05:42:26;;;;;;;17.23;2.95;;;;;;;;;;5095962;28;20017;-70
2023/01/02 05:44:51;;;;;;;9.95;1.58;;;;;;;;;;5095975;28;20099;-70
2023/01/02 05:47:17;;;;;;;12.90;1.88;;;;;;;;;;5094301;28;20432;-72
2023/01/02 05:49:42;;;;;;;5.65;1.63;;;;;;;;;;5095909;28;20431;-71
2023/01/02 05:52:08;;;;;;;7.90;1.83;;;;;;;;;;5095609;28;20027;-72
2023/01/02 05:54:33;;;;;;;6.45;1.48;;;;;;;;;;5095317;28;20020;-71
2023/01/02 05:56:58;;;;;;;9.35;1.60;;;;;;;;;;5094923;28;20361;-70
2023/01/02 05:59:24;;;;;;;9.43;1.95;;;;;;;;;;5095114;28;20020;-72
2023/01/02 06:01:49;;;;;;;3.13;0.40;;;;;;;;;;5095085;28;20396;-70
2023/01/02 06:04:15;;;;;;;10.15;1.20;;;;;;;;;;5095386;28;20416;-72
2023/01/02 06:06:41;;;;;;;1.90;0.70;;;;;;;;;;5094014;28;20487;-72
2023/01/02 06:09:06;;;;;;;1.73;0.57;;;;;;;;;;5094939;28;20380;-73
2023/01/02 06:11:34;;;;;;;3.80;0.90;;;;;;;;;;5093683;28;20201;-73
2023/01/02 06:13:59;;;;;;;3.00;1.13;;;;;;;;;;5093847;28;20024;-74
2023/01/02 06:16:25;;;;;;;9.48;1.83;;;;;;;;;;5095411;28;20383;-75
2023/01/02 06:18:51;;;;;;;2.72;0.70;;;;;;;;;;5095171;28;20095;-76
2023/01/02 06:21:17;;;;;;;1.67;0.55;;;;;;;;;;5095597;28;20042;-75
2023/01/02 06:23:43;;;;;;;4.30;0.88;;;;;;;;;;5094242;28;20070;-76
2023/01/02 06:26:13;;;;;;;3.05;1.05;;;;;;;;;;5094160;28;20028;-76
2023/01/02 06:28:38;;;;;;;5.85;1.20;;;;;;;;;;5095838;28;20028;-76
2023/01/02 06:31:05;;;;;;;3.58;0.80;;;;;;;;;;5095147;28;20016;-75
2023/01/02 06:33:31;;;;;;;6.40;0.90;;;;;;;;;;5095917;28;20023;-77
2023/01/02 06:36:04;;;;;;;3.42;0.70;;;;;;;;;;5095308;28;20092;-74
2023/01/02 06:38:30;;;;;;;1.58;0.20;;;;;;;;;;5094789;28;20020;-74
2023/01/02 06:40:57;;;;;;;3.58;0.22;;;;;;;;;;5093922;28;20412;-77
2023/01/02 06:43:23;;;;;;;1.63;0.20;;;;;;;;;;5094932;28;20020;-74
2023/01/02 06:45:48;;;;;;;2.80;1.45;;;;;;;;;;5094768;28;20423;-72
2023/01/02 06:48:15;;;;;;;2.97;0.65;;;;;;;;;;5093092;28;20027;-72
2023/01/02 06:50:40;;;;;;;2.00;0.90;;;;;;;;;;5095020;28;20130;-73
2023/01/02 06:53:06;;;;;;;1.38;0.50;;;;;;;;;;5093296;28;20051;-72
2023/01/02 06:55:32;;;;;;;5.30;1.10;;;;;;;;;;5094587;28;20040;-74
2023/01/02 06:57:58;;;;;;;5.32;1.02;;;;;;;;;;5094757;28;20023;-73
2023/01/02 07:00:23;;;;;;;1.88;0.55;;;;;;;;;;5093713;28;20024;-75
2023/01/02 07:02:49;;;;;;;2.15;0.80;;;;;;;;;;5095056;28;20092;-73
2023/01/02 07:05:14;;;;;;;2.83;1.35;;;;;;;;;;5094327;28;20044;-73
2023/01/02 07:07:40;;;;;;;3.35;1.20;;;;;;;;;;5094820;28;20519;-75
2023/01/02 07:10:05;;;;;;;4.57;1.90;;;;;;;;;;5094763;28;20456;-71
2023/01/02 07:12:33;;;;;;;4.78;1.60;;;;;;;;;;5093322;28;20031;-71
2023/01/02 07:14:59;;;;;;;5.90;1.05;;;;;;;;;;5093877;28;20035;-73
2023/01/02 07:17:24;;;;;;;3.90;1.65;;;;;;;;;;5092007;28;20062;-75
2023/01/02 07:19:49;;;;;;;5.38;2.33;;;;;;;;;;5094053;28;20020;-72
2023/01/02 07:22:15;;;;;;;2.03;0.68;;;;;;;;;;5093830;28;20040;-72
2023/01/02 07:24:41;;;;;;;3.72;1.55;;;;;;;;;;5094168;28;20028;-73
2023/01/02 07:27:06;;;;;;;2.67;1.52;;;;;;;;;;5092848;28;20023;-72
2023/01/02 07:29:32;;;;;;;7.35;1.55;;;;;;;;;;5092510;28;20073;-73
2023/01/02 07:31:57;;;;;;;13.10;3.40;;;;;;;;;;5092267;28;20016;-73
2023/01/02 07:34:23;;;;;;;10.90;4.05;;;;;;;;;;5093503;28;20480;-75
2023/01/02 07:36:48;;;;;;;10.35;2.30;;;;;;;;;;5092998;28;20130;-75
2023/01/02 07:39:14;;;;;;;5.25;2.40;;;;;;;;;;5093355;28;20543;-71
2023/01/02 07:41:40;;;;;;;8.70;3.88;;;;;;;;;;5093368;28;20039;-72
2023/01/02 07:44:05;;;;;;;9.52;3.78;;;;;;;;;;5091507;28;20078;-76
2023/01/02 07:46:31;;;;;;;9.23;4.15;;;;;;;;;;5091953;28;20020;-72
2023/01/02 07:48:57;;;;;;;12.75;4.47;;;;;;;;;;5091606;28;20529;-72
2023/01/02 07:51:22;;;;;;;9.68;4.07;;;;;;;;;;5091792;28;20044;-73
2023/01/02 07:53:48;;;;;;;9.70;3.97;;;;;;;;;;5091878;28;20447;-73
2023/01/02 07:56:14;;;;;;;12.63;4.72;;;;;;;;;;5093106;28;20475;-74
2023/01/02 07:58:39;;;;;;;26.30;9.05;;;;;;;;;;5092839;28;20023;-74
2023/01/02 08:01:06;;;;;;;19.83;5.82;;;;;;;;;;5091397;28;20020;-72
2023/01/02 08:03:31;;;;;;;30.42;9.02;;;;;;;;;;5093215;28;20020;-75
2023/01/02 08:06:07;;;;;;;25.40;8.07;;;;;;;;;;5091370;28;20118;-77
2023/01/02 08:08:33;;;;;;;19.27;5.93;;;;;;;;;;5093100;28;20151;-74
2023/01/02 08:11:01;;;;;;;20.65;5.07;;;;;;;;;;5092743;28;20108;-72
2023/01/02 08:13:27;;;;;;;24.83;4.95;;;;;;;;;;5093124;28;20024;-76
2023/01/02 08:15:52;;;;;;;26.70;7.15;;;;;;;;;;5092974;28;20499;-78
2023/01/02 08:18:18;;;;;;;20.65;5.50;;;;;;;;;;5092940;28;20478;-78
2023/01/02 08:20:43;;;;;;;32.50;7.57;;;;;;;;;;5091646;28;20138;-75
2023/01/02 08:23:09;;;;;;;10.13;4.43;;;;;;;;;;5092935;28;20052;-77
2023/01/02 08:25:34;;;;;;;25.52;6.43;;;;;;;;;;5092284;28;20023;-78
2023/01/02 08:28:00;;;;;;;20.10;4.97;;;;;;;;;;5091553;28;20423;-74
2023/01/02 08:30:25;;;;;;;24.67;6.55;;;;;;;;;;5091264;28;20069;-71
2023/01/02 08:32:51;;;;;;;25.55;7.72;;;;;;;;;;5092437;28;20017;-71
2023/01/02 08:35:16;;;;;;;21.42;5.20;;;;;;;;;;5090943;28;20039;-71
2023/01/02 08:37:42;;;;;;;28.48;8.68;;;;;;;;;;5091289;28;20441;-71
2023/01/02 08:40:07;;;;;;;21.77;5.53;;;;;;;;;;5092602;28;20456;-75
2023/01/02 08:42:33;;;;;;;28.38;5.20;;;;;;;;;;5091244;28;20072;-62
2023/01/02 08:44:58;;;;;;;18.58;5.30;;;;;;;;;;5090752;28;20115;-62
2023/01/02 08:47:24;;;;;;;19.25;5.38;;;;;;;;;;5092158;28;20047;-65
2023/01/02 08:49:49;;;;;;;22.40;6.82;;;;;;;;;;5091107;28;20012;-63
2023/01/02 08:52:16;;;;;;;20.52;6.30;;;;;;;;;;5093185;28;20590;-65
2023/01/02 08:54:41;;;;;;;19.30;6.75;;;;;;;;;;5092495;28;20051;-66
2023/01/02 08:57:06;;;;;;;24.38;7.28;;;;;;;;;;5091044;28;20365;-68
2023/01/02 08:59:32;;;;;;;18.63;5.80;;;;;;;;;;5092313;28;20460;-71
2023/01/02 09:01:57;;;;;;;33.88;8.77;;;;;;;;;;5091866;28;20012;-75
2023/01/02 09:04:23;;;;;;;38.55;8.60;;;;;;;;;;5090338;28;20048;-74
2023/01/02 09:06:48;;;;;;;28.17;6.93;;;;;;;;;;5092539;28;20081;-73
2023/01/02 09:09:15;;;;;;;20.92;5.70;;;;;;;;;;5091766;28;20043;-73
2023/01/02 09:11:49;;;;;;;26.35;6.35;;;;;;;;;;5090572;28;20016;-73
2023/01/02 09:14:15;;;;;;;20.85;6.78;;;;;;;;;;5092363;28;20115;-72
2023/01/02 09:16:41;;;;;;;21.45;7.05;;;;;;;;;;5090681;28;20021;-72
2023/01/02 09:19:06;;;;;;;14.65;4.30;;;;;;;;;;5091680;28;20016;-69
2023/01/02 09:21:32;;;;;;;26.17;6.22;;;;;;;;;;5090329;28;20190;-70
2023/01/02 09:23:58;;;;;;;21.08;6.50;;;;;;;;;;5091960;28;20081;-68
2023/01/02 09:26:23;;;;;;;22.67;5.63;;;;;;;;;;5092088;28;20043;-65
2023/01/02 09:28:49;;;;;;;22.40;5.70;;;;;;;;;;5092071;28;20020;-64
2023/01/02 09:31:15;;;;;;;20.90;6.80;;;;;;;;;;5091863;28;20020;-65
2023/01/02 09:33:41;;;;;;;18.35;6.75;;;;;;;;;;5091465;28;20089;-65
2023/01/02 09:36:07;;;;;;;24.95;6.97;;;;;;;;;;5091528;28;20154;-65
2023/01/02 09:38:33;;;;;;;27.67;7.25;;;;;;;;;;5091899;28;20031;-65
2023/01/02 09:41:00;;;;;;;28.23;7.80;;;;;;;;;;5091938;28;20016;-66
2023/01/02 09:43:43;;;;;;;27.63;7.13;;;;;;;;;;5090153;28;20012;-64
2023/01/02 09:46:12;;;;;;;29.02;8.20;;;;;;;;;;5091745;28;20023;-64
2023/01/02 09:48:38;;;;;;;28.45;6.88;;;;;;;;;;5091885;28;20020;-66
2023/01/02 09:51:04;;;;;;;22.55;5.68;;;;;;;;;;5091768;28;20015;-65
2023/01/02 09:53:31;;;;;;;24.65;7.43;;;;;;;;;;5091620;28;20027;-65
2023/01/02 09:56:16;;;;;;;29.83;8.70;;;;;;;;;;5091790;28;20032;-66
2023/01/02 09:58:49;;;;;;;32.08;7.80;;;;;;;;;;5080448;28;20050;-65
2023/01/02 10:01:21;;;;;;;22.42;7.22;;;;;;;;;;5091626;28;20016;-65
2023/01/02 10:03:58;;;;;;;27.50;9.10;;;;;;;;;;5089994;28;20016;-65
2023/01/02 10:06:28;;;;;;;26.92;7.18;;;;;;;;;;5091254;28;20020;-66
2023/01/02 10:09:06;;;;;;;21.40;6.80;;;;;;;;;;5091091;28;20031;-66
2023/01/02 10:11:35;;;;;;;40.13;9.48;;;;;;;;;;5091427;28;20560;-66
2023/01/02 10:14:06;;;;;;;39.08;11.02;;;;;;;;;;5089883;28;20085;-65
2023/01/02 10:16:36;;;;;;;30.55;6.57;;;;;;;;;;5091682;28;20027;-66
2023/01/02 10:19:04;;;;;;;32.25;9.05;;;;;;;;;;5094588;28;20097;-66
2023/01/02 10:21:33;;;;;;;33.45;8.40;;;;;;;;;;5092157;28;20020;-66
2023/01/02 10:24:04;;;;;;;27.63;7.43;;;;;;;;;;5094904;28;20069;-66
2023/01/02 10:26:36;;;;;;;34.17;8.30;;;;;;;;;;5093627;28;20488;-66
2023/01/02 10:29:02;;;;;;;27.30;8.57;;;;;;;;;;5094430;28;20431;-66
2023/01/02 10:31:34;;;;;;;36.15;8.85;;;;;;;;;;5094425;28;20066;-67
2023/01/02 10:34:00;;;;;;;30.58;7.30;;;;;;;;;;5092687;28;20020;-66
2023/01/02 10:36:27;;;;;;;28.80;8.15;;;;;;;;;;5093008;28;20044;-67
2023/01/02 10:39:03;;;;;;;25.23;7.97;;;;;;;;;;5095239;28;20024;-66
2023/01/02 10:41:29;;;;;;;25.27;7.18;;;;;;;;;;5094395;28;20020;-67
2023/01/02 10:43:57;;;;;;;22.70;7.63;;;;;;;;;;5094133;28;20023;-66
2023/01/02 10:46:27;;;;;;;24.33;8.00;;;;;;;;;;5094014;28;20016;-66
2023/01/02 10:48:52;;;;;;;22.92;6.18;;;;;;;;;;5092864;28;20107;-67
2023/01/02 10:51:19;;;;;;;27.73;7.40;;;;;;;;;;5094353;28;20024;-66
2023/01/02 10:53:57;;;;;;;31.70;8.73;;;;;;;;;;5094133;28;20040;-66
2023/01/02 10:56:23;;;;;;;26.98;7.05;;;;;;;;;;5093730;28;20032;-67
2023/01/02 10:58:49;;;;;;;29.85;7.43;;;;;;;;;;5094106;28;20353;-67
2023/01/02 11:01:19;;;;;;;27.95;7.95;;;;;;;;;;5093624;28;20437;-66
2023/01/02 11:03:45;;;;;;;24.77;8.20;;;;;;;;;;5093900;28;20086;-67
2023/01/02 11:06:31;;;;;;;34.15;7.97;;;;;;;;;;5092319;28;20031;-67
2023/01/02 11:08:58;;;;;;;25.45;8.00;;;;;;;;;;5092685;28;20438;-68
2023/01/02 11:11:24;;;;;;;26.05;7.63;;;;;;;;;;5092047;28;20016;-68
2023/01/02 11:13:50;;;;;;;26.15;8.27;;;;;;;;;;5093645;28;20382;-67
2023/01/02 11:16:17;;;;;;;30.65;9.23;;;;;;;;;;5091942;28;20434;-67
2023/01/02 11:18:48;;;;;;;21.55;6.10;;;;;;;;;;5093853;28;20017;-67
2023/01/02 11:21:22;;;;;;;25.35;6.70;;;;;;;;;;5093114;28;20015;-67
2023/01/02 11:23:49;;;;;;;23.45;7.10;;;;;;;;;;5093652;28;20091;-66
2023/01/02 11:26:22;;;;;;;30.95;6.95;;;;;;;;;;5093627;28;20020;-66
2023/01/02 11:28:51;;;;;;;28.25;6.53;;;;;;;;;;5091858;28;20035;-67
2023/01/02 11:31:17;;;;;;;30.77;8.10;;;;;;;;;;5091755;28;20016;-67
2023/01/02 11:33:44;;;;;;;33.67;8.70;;;;;;;;;;5093423;28;20032;-67
2023/01/02 11:36:10;;;;;;;30.90;8.50;;;;;;;;;;5093032;28;20040;-67
2023/01/02 11:38:48;;;;;;;38.67;10.80;;;;;;;;;;5091333;28;20025;-67
2023/01/02 11:43:47;;;;;;;33.78;8.70;;;;;;;;;;5091835;28;20039;-68
2023/01/02 11:44:25;;;;;;;30.20;8.77;;;;;;;;;;5093530;28;20051;-68
2023/01/02 11:46:51;;;;;;;35.08;8.85;;;;;;;;;;5093181;28;20047;-67
2023/01/02 11:49:19;;;;;;;38.40;9.15;;;;;;;;;;5092751;28;20058;-67
2023/01/02 11:51:47;;;;;;;23.50;8.32;;;;;;;;;;5093040;28;20094;-67
2023/01/02 11:54:17;;;;;;;29.42;7.88;;;;;;;;;;5091711;28;20024;-67
2023/01/02 11:56:44;;;;;;;23.55;7.70;;;;;;;;;;5091130;28;20016;-68
2023/01/02 11:59:20;;;;;;;22.35;7.25;;;;;;;;;;5092711;28;20473;-68
2023/01/02 12:01:45;;;;;;;23.10;6.70;;;;;;;;;;5092661;28;20524;-67
2023/01/02 12:04:12;;;;;;;31.45;9.82;;;;;;;;;;5091551;28;20052;-67
2023/01/02 12:06:56;;;;;;;30.58;8.65;;;;;;;;;;5091373;28;20020;-68
2023/01/02 12:09:40;;;;;;;19.92;7.20;;;;;;;;;;5092516;28;20020;-68
2023/01/02 12:12:08;;;;;;;29.45;8.30;;;;;;;;;;5092232;28;20381;-68
2023/01/02 12:14:48;;;;;;;29.52;9.82;;;;;;;;;;5091897;28;20055;-68
2023/01/02 12:17:23;;;;;;;19.38;7.80;;;;;;;;;;5090596;28;20059;-70
2023/01/02 12:19:51;;;;;;;25.50;7.82;;;;;;;;;;5092540;28;20040;-69
2023/01/02 12:22:31;;;;;;;20.48;7.05;;;;;;;;;;5092354;28;20028;-70
2023/01/02 12:25:11;;;;;;;26.52;6.78;;;;;;;;;;5091524;28;20031;-73
2023/01/02 12:27:49;;;;;;;20.80;6.30;;;;;;;;;;5092838;28;20031;-70
2023/01/02 12:30:14;;;;;;;24.67;6.82;;;;;;;;;;5092737;28;20059;-70
2023/01/02 12:32:47;;;;;;;25.33;7.43;;;;;;;;;;5090983;28;20047;-70
2023/01/02 12:35:17;;;;;;;20.52;7.18;;;;;;;;;;5091789;28;20076;-70
2023/01/02 12:37:55;;;;;;;23.30;7.15;;;;;;;;;;5091681;28;20491;-71
2023/01/02 12:40:28;;;;;;;24.77;7.43;;;;;;;;;;5089901;28;20020;-70
2023/01/02 12:43:08;;;;;;;23.23;7.80;;;;;;;;;;5092270;28;20031;-71
2023/01/02 12:45:38;;;;;;;16.05;5.82;;;;;;;;;;5091043;28;20027;-68
2023/01/02 12:48:21;;;;;;;22.80;6.50;;;;;;;;;;5092158;28;20031;-69
2023/01/02 12:51:05;;;;;;;26.52;7.22;;;;;;;;;;5090966;28;20023;-71
2023/01/02 12:53:34;;;;;;;23.80;7.72;;;;;;;;;;5091768;28;20503;-70
2023/01/02 12:56:02;;;;;;;27.35;8.85;;;;;;;;;;5091826;28;20031;-70
2023/01/02 12:58:31;;;;;;;23.85;7.68;;;;;;;;;;5092355;28;20020;-71
2023/01/02 13:01:05;;;;;;;25.85;8.85;;;;;;;;;;5091546;28;20016;-74
2023/01/02 13:03:40;;;;;;;36.03;9.20;;;;;;;;;;5091751;28;20016;-71
2023/01/02 13:06:21;;;;;;;33.08;9.57;;;;;;;;;;5091940;28;20042;-70
2023/01/02 13:08:56;;;;;;;30.65;8.45;;;;;;;;;;5090628;28;20468;-71
2023/01/02 13:11:25;;;;;;;32.80;9.48;;;;;;;;;;5091139;28;20114;-70
2023/01/02 13:13:52;;;;;;;33.38;9.77;;;;;;;;;;5092085;28;20020;-70
2023/01/02 13:16:18;;;;;;;43.50;10.65;;;;;;;;;;5091778;28;20112;-71
2023/01/02 13:18:54;;;;;;;38.38;10.13;;;;;;;;;;5090453;28;20104;-72
2023/01/02 13:21:34;;;;;;;32.70;9.55;;;;;;;;;;5091641;28;20031;-71
2023/01/02 13:24:00;;;;;;;37.53;11.50;;;;;;;;;;5091974;28;20081;-70
2023/01/02 13:26:27;;;;;;;34.17;10.45;;;;;;;;;;5091734;28;20118;-70
2023/01/02 13:28:56;;;;;;;33.40;10.40;;;;;;;;;;5091504;28;20349;-70
2023/01/02 13:31:21;;;;;;;40.28;10.32;;;;;;;;;;5091492;28;20016;-71
2023/01/02 13:33:48;;;;;;;40.95;10.38;;;;;;;;;;5090382;28;20495;-71
2023/01/02 13:36:27;;;;;;;46.72;12.40;;;;;;;;;;5091745;28;20496;-71
2023/01/02 13:38:57;;;;;;;38.15;13.55;;;;;;;;;;5090457;28;20039;-70
2023/01/02 13:41:25;;;;;;;51.25;12.60;;;;;;;;;;5091786;28;20097;-70
2023/01/02 13:43:55;;;;;;;42.47;12.48;;;;;;;;;;5092103;28;20012;-71
2023/01/02 13:46:26;;;;;;;54.78;12.93;;;;;;;;;;5091792;28;20038;-70
2023/01/02 13:48:54;;;;;;;53.75;13.00;;;;;;;;;;5091718;28;20095;-71
2023/01/02 13:51:25;;;;;;;46.70;12.80;;;;;;;;;;5093186;28;20031;-69
2023/01/02 13:53:52;;;;;;;37.88;12.07;;;;;;;;;;5095251;28;20020;-72
2023/01/02 13:56:27;;;;;;;37.78;10.57;;;;;;;;;;5095221;28;20038;-71
2023/01/02 13:58:56;;;;;;;51.45;13.73;;;;;;;;;;5094011;28;20111;-71
2023/01/02 14:01:24;;;;;;;39.03;12.07;;;;;;;;;;5094287;28;20028;-70
2023/01/02 14:03:50;;;;;;;44.45;12.23;;;;;;;;;;5095310;28;20027;-71
2023/01/02 14:06:27;;;;;;;42.08;11.95;;;;;;;;;;5093452;28;20048;-72
2023/01/02 14:09:13;;;;;;;49.08;13.15;;;;;;;;;;5094059;28;20032;-70
2023/01/02 14:11:39;;;;;;;35.58;10.57;;;;;;;;;;5093920;28;20024;-70
2023/01/02 14:14:28;;;;;;;40.75;11.38;;;;;;;;;;5094921;28;20016;-71
2023/01/02 14:17:03;;;;;;;45.88;12.18;;;;;;;;;;5082607;28;20085;-70
2023/01/02 14:19:29;;;;;;;43.63;12.02;;;;;;;;;;5095257;28;20498;-70
2023/01/02 14:21:57;;;;;;;50.22;12.77;;;;;;;;;;5094913;28;20016;-69
2023/01/02 14:24:41;;;;;;;36.25;12.20;;;;;;;;;;5093266;28;20019;-70
2023/01/02 14:27:21;;;;;;;46.83;12.10;;;;;;;;;;5094782;28;20043;-70
2023/01/02 14:29:58;;;;;;;51.83;18.08;;;;;;;;;;5094960;28;20445;-70
2023/01/02 14:32:35;;;;;;;32.75;10.88;;;;;;;;;;5092967;28;20154;-69
2023/01/02 14:35:23;;;;;;;40.30;12.77;;;;;;;;;;5092922;28;20036;-70
2023/01/02 14:37:53;;;;;;;38.83;11.75;;;;;;;;;;5094312;28;20023;-70
2023/01/02 14:40:21;;;;;;;39.50;12.35;;;;;;;;;;5094654;28;20016;-70
2023/01/02 14:45:47;;;;;;;39.83;11.18;;;;;;;;;;5094333;28;20073;-70
2023/01/02 14:48:16;;;;;;;44.28;13.27;;;;;;;;;;5094245;28;20020;-70
2023/01/02 14:50:44;;;;;;;40.40;11.13;;;;;;;;;;5094980;28;20468;-71